Time;durP1;ratioP1;P1;durP2;ratioP2;P2;SDS_P1;SDS_P2;PMS_P1;PMS_P2;Temp;Humidity;BMP_temperature;BMP_pressure;BME280_temperature;BME280_humidity;BME280_pressure;Samples;Min_cycle;Max_cycle;Signal;HPM_P1;HPM_P2
2023/04/19 00:01:51;;;;;;;8.00;6.50;;;;;;;7.70;85.43;97009.16;110371;1242;68513;-73
2023/04/19 00:04:21;;;;;;;7.90;6.90;;;;;;;7.71;84.72;97008.57;110493;1241;59700;-73
2023/04/19 00:06:52;;;;;;;10.30;8.20;;;;;;;7.72;87.51;97005.91;111502;1240;59686;-73
2023/04/19 00:09:21;;;;;;;9.30;8.30;;;;;;;7.74;85.91;97001.80;111183;1241;71370;-72
2023/04/19 00:11:51;;;;;;;9.70;7.70;;;;;;;7.75;86.97;97000.70;110492;1241;69258;-72
2023/04/19 00:14:21;;;;;;;8.60;6.80;;;;;;;7.75;86.74;96994.95;110571;1241;69282;-72
2023/04/19 00:16:52;;;;;;;10.00;6.80;;;;;;;7.74;86.44;96992.27;110539;1241;59671;-72
2023/04/19 00:19:22;;;;;;;7.60;6.70;;;;;;;7.74;86.70;96992.59;110539;1240;59734;-72
2023/04/19 00:21:51;;;;;;;13.90;8.60;;;;;;;7.75;87.18;96991.14;110298;1244;71971;-73
2023/04/19 00:24:21;;;;;;;11.10;7.70;;;;;;;7.75;87.30;96988.69;110314;1241;68287;-72
2023/04/19 00:26:53;;;;;;;8.20;7.00;;;;;;;7.75;86.98;96989.08;110243;1242;69268;-72
2023/04/19 00:29:24;;;;;;;10.10;7.10;;;;;;;7.73;87.16;96984.66;110401;1242;59744;-72
2023/04/19 00:31:54;;;;;;;10.30;6.90;;;;;;;7.72;87.87;96989.29;110309;1243;59644;-73
2023/04/19 00:34:25;;;;;;;7.10;6.20;;;;;;;7.67;87.41;96987.66;110319;1242;71281;-72
2023/04/19 00:36:56;;;;;;;8.30;6.60;;;;;;;7.65;87.01;96989.54;110175;1241;68945;-73
2023/04/19 00:39:26;;;;;;;6.70;5.80;;;;;;;7.63;86.85;96987.10;110263;1242;68132;-74
2023/04/19 00:41:59;;;;;;;8.00;5.80;;;;;;;7.61;86.38;96989.65;110291;1243;59653;-72
2023/04/19 00:44:29;;;;;;;7.60;6.10;;;;;;;7.60;86.26;96986.60;110266;1240;59716;-73
2023/04/19 00:46:59;;;;;;;10.10;7.60;;;;;;;7.59;86.63;96982.98;110363;1242;71345;-72
2023/04/19 00:49:32;;;;;;;11.70;8.30;;;;;;;7.59;87.43;96984.57;110392;1242;69170;-73
2023/04/19 00:52:05;;;;;;;10.30;7.60;;;;;;;7.59;87.92;96977.62;110230;1244;69205;-73
2023/04/19 00:54:40;;;;;;;10.70;8.20;;;;;;;7.59;89.99;96972.80;110224;1244;59716;-72
2023/04/19 00:57:10;;;;;;;11.60;8.90;;;;;;;7.58;91.02;96968.16;110321;1241;59694;-73
2023/04/19 00:59:45;;;;;;;12.30;8.00;;;;;;;7.58;91.36;96965.55;110317;1243;70515;-72
2023/04/19 01:02:22;;;;;;;8.10;7.20;;;;;;;7.57;88.74;96965.27;110284;1241;67950;-71
2023/04/19 01:04:53;;;;;;;10.70;7.80;;;;;;;7.53;87.89;96962.42;110162;1241;69257;-72
2023/04/19 01:07:26;;;;;;;11.60;7.90;;;;;;;7.51;89.65;96963.61;110289;1241;59749;-73
2023/04/19 01:10:02;;;;;;;9.50;7.50;;;;;;;7.51;87.28;96960.53;110131;1241;60196;-73
2023/04/19 01:12:32;;;;;;;10.90;8.10;;;;;;;7.50;87.11;96961.23;110275;1242;71470;-72
2023/04/19 01:15:05;;;;;;;11.90;8.20;;;;;;;7.48;91.07;96958.08;110245;1241;68483;-71
2023/04/19 01:17:38;;;;;;;10.10;8.30;;;;;;;7.47;91.63;96952.09;110616;1243;69742;-72
2023/04/19 01:20:12;;;;;;;11.40;8.60;;;;;;;7.46;92.35;96951.17;110765;1240;59678;-73
2023/04/19 01:22:42;;;;;;;10.60;7.70;;;;;;;7.43;92.69;96950.10;110251;1244;59711;-74
2023/04/19 01:25:13;;;;;;;11.10;7.70;;;;;;;7.43;92.43;96947.20;110453;1241;71456;-73
2023/04/19 01:27:45;;;;;;;11.40;8.30;;;;;;;7.42;91.31;96943.80;110277;1241;69275;-72
2023/04/19 01:30:17;;;;;;;10.70;7.70;;;;;;;7.40;90.42;96942.34;110338;1242;68524;-72
2023/04/19 01:32:48;;;;;;;9.00;7.40;;;;;;;7.39;91.63;96942.92;110558;1241;59677;-72
2023/04/19 01:35:20;;;;;;;9.00;7.50;;;;;;;7.39;91.37;96938.92;110395;1241;59687;-71
2023/04/19 01:37:55;;;;;;;10.00;8.40;;;;;;;7.40;91.96;96936.81;110172;1243;71435;-71
2023/04/19 01:40:27;;;;;;;11.30;8.50;;;;;;;7.41;91.02;96932.56;110414;1241;68256;-71
2023/04/19 01:43:00;;;;;;;9.50;7.60;;;;;;;7.41;89.83;96926.16;110410;1241;69280;-72
2023/04/19 01:45:36;;;;;;;11.40;8.70;;;;;;;7.40;89.58;96925.67;110291;1242;59711;-72
2023/04/19 01:48:09;;;;;;;11.20;8.30;;;;;;;7.40;90.45;96929.52;110355;1241;59634;-72
2023/04/19 01:50:44;;;;;;;8.90;7.20;;;;;;;7.38;88.39;96931.70;110435;1242;69695;-72
2023/04/19 01:53:15;;;;;;;10.10;8.10;;;;;;;7.37;87.87;96934.38;110411;1240;68497;-72
2023/04/19 01:55:46;;;;;;;10.70;6.90;;;;;;;7.34;86.98;96932.52;110352;1242;69127;-72
2023/04/19 01:58:16;;;;;;;10.20;7.40;;;;;;;7.32;85.60;96930.91;110378;1241;59685;-71
2023/04/19 02:00:48;;;;;;;10.40;7.90;;;;;;;7.29;85.37;96931.29;110198;1244;59660;-72
2023/04/19 02:03:19;;;;;;;10.70;7.30;;;;;;;7.27;85.23;96929.23;110362;1242;70908;-71
2023/04/19 02:05:50;;;;;;;10.60;8.60;;;;;;;7.22;85.33;96929.52;110296;1243;69268;-73
2023/04/19 02:08:22;;;;;;;10.10;7.70;;;;;;;7.18;88.57;96932.02;110381;1242;69185;-73
2023/04/19 02:10:53;;;;;;;11.40;8.90;;;;;;;7.16;91.95;96928.55;110480;1241;59763;-71
2023/04/19 02:13:25;;;;;;;10.60;8.20;;;;;;;7.15;93.50;96926.14;110366;1241;59676;-72
2023/04/19 02:15:55;;;;;;;13.50;9.20;;;;;;;7.15;94.30;96927.71;110341;1240;70550;-72
2023/04/19 02:18:28;;;;;;;10.50;7.90;;;;;;;7.14;94.74;96924.65;110359;1240;68492;-73
2023/04/19 02:20:58;;;;;;;9.90;7.80;;;;;;;7.11;94.71;96924.48;111093;1240;69080;-73
2023/04/19 02:23:28;;;;;;;11.60;8.50;;;;;;;7.08;93.46;96921.23;111170;1241;60196;-72
2023/04/19 02:26:01;;;;;;;12.00;7.90;;;;;;;7.04;94.42;96920.98;110220;1243;59676;-72
2023/04/19 02:28:32;;;;;;;12.10;7.70;;;;;;;7.01;94.38;96920.14;110487;1242;70694;-72
2023/04/19 02:31:07;;;;;;;10.30;7.10;;;;;;;7.00;93.95;96918.64;110273;1241;69221;-73
2023/04/19 02:33:40;;;;;;;8.60;7.00;;;;;;;6.99;92.94;96915.95;110450;1242;69326;-72
2023/04/19 02:36:11;;;;;;;8.40;6.80;;;;;;;7.00;92.79;96919.39;110302;1241;59690;-73
2023/04/19 02:38:41;;;;;;;7.80;7.00;;;;;;;7.02;92.01;96915.96;110385;1241;59676;-73
2023/04/19 02:41:11;;;;;;;11.00;7.20;;;;;;;7.03;92.25;96917.09;110375;1242;71514;-72
2023/04/19 02:43:42;;;;;;;9.90;7.00;;;;;;;7.05;91.45;96911.37;110139;1241;68340;-72
2023/04/19 02:46:14;;;;;;;9.80;7.20;;;;;;;7.08;92.28;96910.67;110252;1241;69244;-72
2023/04/19 02:48:46;;;;;;;9.60;7.30;;;;;;;7.11;92.35;96907.35;110321;1241;59740;-72
2023/04/19 02:51:17;;;;;;;9.80;6.90;;;;;;;7.12;91.90;96903.28;110286;1241;59705;-72
2023/04/19 02:53:48;;;;;;;8.40;6.10;;;;;;;7.13;91.70;96901.14;110385;1241;71193;-72
2023/04/19 02:56:21;;;;;;;9.90;6.80;;;;;;;7.14;92.19;96899.67;110133;1244;69782;-73
2023/04/19 02:58:53;;;;;;;10.00;7.30;;;;;;;7.14;92.63;96900.55;110277;1239;69761;-72
2023/04/19 03:01:23;;;;;;;;;;;;;;;7.14;90.45;96897.44;110296;1244;59685;-71
2023/04/19 03:03:55;;;;;;;12.00;7.90;;;;;;;7.12;93.61;96895.13;110349;1241;59666;-72
2023/04/19 03:06:26;;;;;;;8.90;8.00;;;;;;;7.12;94.47;96895.19;110230;1245;71207;-73
2023/04/19 03:08:58;;;;;;;9.90;8.10;;;;;;;7.11;96.05;96896.12;110351;1241;69211;-74
2023/04/19 03:11:30;;;;;;;9.30;7.80;;;;;;;7.09;93.06;96896.36;110244;1242;69389;-73
2023/04/19 03:14:01;;;;;;;10.50;8.40;;;;;;;7.08;90.31;96899.08;110272;1243;59715;-73
2023/04/19 03:16:32;;;;;;;11.90;8.60;;;;;;;7.06;88.87;96896.64;110419;1242;59622;-73
2023/04/19 03:19:02;;;;;;;13.10;8.70;;;;;;;7.02;92.06;96898.43;110281;1244;69830;-73
2023/04/19 03:21:36;;;;;;;12.80;8.50;;;;;;;7.00;94.41;96902.34;110220;1241;68511;-71
2023/04/19 03:24:06;;;;;;;10.90;8.00;;;;;;;7.00;95.84;96898.96;110326;1239;69084;-72
2023/04/19 03:26:38;;;;;;;11.70;8.10;;;;;;;6.99;92.95;96898.84;111359;1241;58787;-74
2023/04/19 03:29:10;;;;;;;13.20;9.20;;;;;;;6.99;95.93;96898.34;111280;1241;59640;-74
2023/04/19 03:31:49;;;;;;;13.10;9.50;;;;;;;6.99;96.55;96896.23;110593;1241;71930;-72
2023/04/19 03:34:19;;;;;;;13.50;10.20;;;;;;;7.00;96.96;96894.43;110384;1242;69471;-72
2023/04/19 03:36:49;;;;;;;12.00;8.80;;;;;;;7.00;96.49;96895.25;110521;1242;69294;-73
2023/04/19 03:39:19;;;;;;;;;;;;;;;7.01;96.43;96895.02;110562;1242;59674;-72
2023/04/19 03:41:52;;;;;;;10.50;7.50;;;;;;;7.00;96.67;96895.83;110323;1240;59674;-72
2023/04/19 03:44:25;;;;;;;10.60;8.10;;;;;;;7.00;96.06;96893.72;110561;1241;70866;-73
2023/04/19 03:46:55;;;;;;;12.00;8.10;;;;;;;7.00;96.03;96892.35;110574;1239;69235;-73
2023/04/19 03:49:26;;;;;;;11.40;8.40;;;;;;;7.01;96.61;96891.21;110314;1242;68502;-71
2023/04/19 03:52:04;;;;;;;11.20;8.30;;;;;;;7.01;97.17;96887.23;110397;1242;59657;-72
2023/04/19 03:54:34;;;;;;;11.00;8.10;;;;;;;7.00;96.83;96885.02;110441;1242;59678;-72
2023/04/19 03:57:05;;;;;;;10.50;8.00;;;;;;;7.02;95.80;96884.59;110290;1242;71222;-72
2023/04/19 03:59:39;;;;;;;11.50;8.50;;;;;;;7.02;94.69;96884.38;110395;1242;69140;-72
2023/04/19 04:02:09;;;;;;;10.90;8.00;;;;;;;7.04;94.62;96885.16;110371;1242;68354;-72
2023/04/19 04:04:39;;;;;;;10.60;7.40;;;;;;;7.05;93.64;96887.67;110362;1241;59703;-72
2023/04/19 04:07:09;;;;;;;23.60;15.20;;;;;;;7.05;91.47;96887.13;110207;1242;59739;-74
2023/04/19 04:09:39;;;;;;;35.50;23.00;;;;;;;7.05;89.81;96888.17;110180;1249;70824;-73
2023/04/19 04:12:11;;;;;;;;;;;;;;;7.05;89.55;96886.63;110324;1242;68461;-73
2023/04/19 04:14:41;;;;;;;26.80;17.50;;;;;;;7.04;89.36;96886.68;110226;1242;68554;-73
2023/04/19 04:17:10;;;;;;;23.80;16.60;;;;;;;7.04;89.51;96884.95;110297;1242;59628;-73
2023/04/19 04:19:40;;;;;;;22.60;15.80;;;;;;;7.05;89.07;96884.70;110349;1241;59710;-73
2023/04/19 04:22:08;;;;;;;20.00;14.50;;;;;;;7.06;89.50;96885.66;110220;1242;71412;-73
2023/04/19 04:24:41;;;;;;;23.20;16.50;;;;;;;7.08;94.57;96886.23;110210;1244;69873;-73
2023/04/19 04:27:22;;;;;;;20.90;15.40;;;;;;;7.11;98.34;96890.16;110235;1241;68433;-72
2023/04/19 04:29:55;;;;;;;18.40;13.90;;;;;;;7.15;97.95;96887.84;110526;1241;59631;-72
2023/04/19 04:32:24;;;;;;;22.40;15.10;;;;;;;7.19;97.47;96885.52;111360;1241;59686;-73
2023/04/19 04:34:57;;;;;;;28.70;18.90;;;;;;;7.23;97.30;96884.71;110293;1241;72348;-73
2023/04/19 04:37:34;;;;;;;30.90;17.90;;;;;;;7.26;96.81;96883.85;110266;1245;69830;-73
2023/04/19 04:40:04;;;;;;;20.00;13.60;;;;;;;7.28;96.35;96884.88;110062;1241;69109;-72
2023/04/19 04:42:34;;;;;;;14.80;11.60;;;;;;;7.32;95.47;96883.77;110231;1241;59743;-73
2023/04/19 04:45:04;;;;;;;14.90;10.30;;;;;;;7.35;95.00;96878.38;110199;1245;60111;-73
2023/04/19 04:47:34;;;;;;;14.30;10.60;;;;;;;7.38;95.51;96880.38;110117;1244;70657;-70
2023/04/19 04:50:06;;;;;;;12.20;9.70;;;;;;;7.43;95.25;96878.33;110076;1245;69739;-73
2023/04/19 04:52:35;;;;;;;13.30;9.30;;;;;;;7.48;94.33;96876.63;110156;1244;68468;-73
2023/04/19 04:55:24;;;;;;;11.70;10.10;;;;;;;7.54;94.23;96876.05;110112;1244;60391;-72
2023/04/19 04:57:54;;;;;;;13.50;10.00;;;;;;;7.59;94.51;96875.45;110126;1243;59633;-72
2023/04/19 05:00:43;;;;;;;11.90;9.20;;;;;;;7.68;94.38;96877.17;110154;1241;71899;-73
2023/04/19 05:03:13;;;;;;;12.80;8.40;;;;;;;7.74;93.81;96876.35;110279;1243;69302;-73
2023/04/19 05:05:47;;;;;;;9.90;7.40;;;;;;;7.82;94.83;96875.27;110264;1243;69315;-73
2023/04/19 05:08:17;;;;;;;9.00;6.90;;;;;;;7.92;94.80;96873.91;110214;1244;59753;-72
2023/04/19 05:10:47;;;;;;;10.20;7.90;;;;;;;8.00;93.75;96870.56;110273;1241;59690;-72
2023/04/19 05:13:16;;;;;;;9.20;7.70;;;;;;;8.05;93.33;96869.63;110278;1240;71413;-73
2023/04/19 05:15:45;;;;;;;11.90;8.60;;;;;;;8.11;92.52;96870.64;110262;1243;69826;-72
2023/04/19 05:18:14;;;;;;;9.40;7.60;;;;;;;8.17;91.54;96867.24;110263;1244;69206;-73
2023/04/19 05:20:45;;;;;;;10.80;7.40;;;;;;;8.26;90.33;96870.23;110274;1243;59677;-72
2023/04/19 05:23:21;;;;;;;10.00;8.30;;;;;;;8.36;89.75;96869.70;110270;1245;59676;-72
2023/04/19 05:25:50;;;;;;;9.70;7.80;;;;;;;8.45;88.29;96869.11;110172;1241;71983;-72
2023/04/19 05:28:20;;;;;;;11.60;9.30;;;;;;;8.55;87.70;96869.70;110275;1241;68549;-73
2023/04/19 05:31:08;;;;;;;11.00;8.30;;;;;;;8.67;87.69;96867.80;110161;1244;69638;-72
2023/04/19 05:33:44;;;;;;;9.20;7.30;;;;;;;8.79;87.30;96866.62;110229;1244;59729;-73
2023/04/19 05:36:15;;;;;;;10.90;8.00;;;;;;;8.89;86.31;96864.98;111385;1242;59698;-73
2023/04/19 05:38:45;;;;;;;8.60;7.30;;;;;;;8.96;85.12;96863.20;110421;1245;70611;-73
2023/04/19 05:41:14;;;;;;;14.10;9.20;;;;;;;9.06;85.69;96862.82;110224;1241;70070;-73
2023/04/19 05:43:46;;;;;;;10.60;7.90;;;;;;;9.10;84.83;96863.38;110236;1245;69839;-74
2023/04/19 05:46:16;;;;;;;10.50;8.10;;;;;;;9.16;84.37;96867.39;110238;1245;59703;-73
2023/04/19 05:48:45;;;;;;;8.70;7.80;;;;;;;9.21;82.90;96866.91;110262;1241;59696;-72
2023/04/19 05:51:33;;;;;;;9.40;7.60;;;;;;;9.27;83.25;96870.66;110305;1243;71373;-73
2023/04/19 05:54:11;;;;;;;10.70;8.10;;;;;;;9.29;81.26;96866.83;110254;1243;69253;-73
2023/04/19 05:56:42;;;;;;;9.80;7.80;;;;;;;9.31;80.39;96869.81;110166;1245;69316;-75
2023/04/19 05:59:13;;;;;;;11.70;8.80;;;;;;;9.32;79.76;96867.77;110137;1241;59745;-74
2023/04/19 06:01:42;;;;;;;12.60;9.70;;;;;;;9.35;80.45;96869.66;110242;1245;59662;-75
2023/04/19 06:04:12;;;;;;;10.60;8.60;;;;;;;9.41;80.62;96872.34;110123;1241;70690;-75
2023/04/19 06:06:43;;;;;;;12.90;9.10;;;;;;;9.49;79.03;96870.52;110172;1247;69507;-75
2023/04/19 06:09:17;;;;;;;10.60;8.20;;;;;;;9.60;78.59;96868.63;110057;1245;68400;-74
2023/04/19 06:11:46;;;;;;;11.30;9.10;;;;;;;9.73;78.34;96867.80;110358;1241;59682;-76
2023/04/19 06:14:19;;;;;;;12.50;8.60;;;;;;;9.82;76.99;96868.09;110386;1241;59730;-74
2023/04/19 06:16:51;;;;;;;14.50;8.70;;;;;;;9.93;75.73;96864.81;110308;1242;70443;-75
2023/04/19 06:19:20;;;;;;;12.00;6.70;;;;;;;10.01;74.63;96866.98;110456;1244;69108;-74
2023/04/19 06:21:49;;;;;;;9.00;6.40;;;;;;;10.13;73.75;96869.66;110307;1242;69788;-73
2023/04/19 06:24:18;;;;;;;7.00;5.50;;;;;;;10.22;72.12;96871.39;110176;1242;59751;-72
2023/04/19 06:26:48;;;;;;;6.60;5.50;;;;;;;10.36;69.86;96871.71;110239;1242;59669;-73
2023/04/19 06:29:20;;;;;;;;;;;;;;;10.58;71.36;96871.25;110291;1247;71365;-75
2023/04/19 06:31:49;;;;;;;7.20;5.50;;;;;;;10.76;68.84;96871.54;110376;1239;68845;-73
2023/04/19 06:34:18;;;;;;;6.90;6.20;;;;;;;10.96;69.58;96875.65;110245;1241;69296;-73
2023/04/19 06:36:47;;;;;;;8.60;5.50;;;;;;;11.19;69.96;96873.05;110491;1241;59753;-73
2023/04/19 06:39:17;;;;;;;6.60;5.10;;;;;;;11.45;70.39;96871.73;110894;1239;59680;-72
2023/04/19 06:41:46;;;;;;;8.80;5.60;;;;;;;11.67;68.24;96869.86;110770;1242;70405;-74
2023/04/19 06:44:17;;;;;;;6.80;5.30;;;;;;;11.85;65.90;96871.63;110537;1242;69706;-75
2023/04/19 06:46:46;;;;;;;9.60;6.20;;;;;;;12.07;64.83;96868.70;110643;1242;68719;-75
2023/04/19 06:49:14;;;;;;;20.40;11.60;;;;;;;12.29;64.30;96871.63;110426;1242;59667;-74
2023/04/19 06:51:44;;;;;;;10.20;5.20;;;;;;;12.55;64.45;96865.03;110279;1242;59682;-75
2023/04/19 06:54:13;;;;;;;4.10;2.90;;;;;;;12.76;62.14;96866.96;110489;1241;70879;-75
2023/04/19 06:56:45;;;;;;;3.50;3.00;;;;;;;12.91;59.27;96865.23;110470;1242;68957;-75
2023/04/19 06:59:16;;;;;;;6.40;2.80;;;;;;;13.15;59.89;96861.45;110347;1241;69288;-75
2023/04/19 07:01:46;;;;;;;3.90;2.70;;;;;;;13.40;58.05;96862.98;110339;1240;59745;-74
2023/04/19 07:04:16;;;;;;;5.40;3.00;;;;;;;13.48;57.31;96859.98;110451;1242;59602;-74
2023/04/19 07:06:51;;;;;;;3.50;2.80;;;;;;;13.70;56.91;96862.02;110472;1242;69471;-74
2023/04/19 07:09:20;;;;;;;3.50;2.70;;;;;;;13.92;54.24;96864.09;110393;1241;69193;-75
2023/04/19 07:11:50;;;;;;;7.40;3.50;;;;;;;14.02;53.38;96864.59;110311;1242;69305;-74
2023/04/19 07:14:19;;;;;;;5.20;3.70;;;;;;;14.18;53.23;96870.02;110375;1242;59664;-74
2023/04/19 07:16:48;;;;;;;3.70;3.00;;;;;;;13.94;51.93;96865.44;110487;1241;59675;-74
2023/04/19 07:19:21;;;;;;;3.70;2.80;;;;;;;13.89;52.13;96865.15;110517;1241;70639;-75
2023/04/19 07:21:50;;;;;;;3.20;2.70;;;;;;;14.17;53.48;96867.48;110472;1241;68967;-74
2023/04/19 07:24:19;;;;;;;3.40;2.80;;;;;;;14.22;52.17;96863.01;110298;1242;69338;-74
2023/04/19 07:26:48;;;;;;;3.90;3.20;;;;;;;14.39;52.23;96866.81;110330;1241;59709;-74
2023/04/19 07:29:18;;;;;;;3.80;2.70;;;;;;;14.46;50.84;96864.88;110185;1245;59695;-75
2023/04/19 07:31:47;;;;;;;;;;;;;;;14.94;51.61;96866.17;110170;1243;71463;-75
2023/04/19 07:34:16;;;;;;;3.80;2.90;;;;;;;14.91;49.84;96870.78;110411;1241;69851;-75
2023/04/19 07:36:46;;;;;;;4.10;3.00;;;;;;;14.99;48.74;96874.91;110182;1245;69312;-76
2023/04/19 07:39:15;;;;;;;3.70;2.50;;;;;;;15.28;49.02;96870.61;110227;1243;59689;-77
2023/04/19 07:41:45;;;;;;;4.10;2.60;;;;;;;15.83;49.13;96868.73;110592;1240;59678;-76
2023/04/19 07:44:14;;;;;;;4.30;3.30;;;;;;;16.00;46.86;96869.70;111527;1240;71287;-74
2023/04/19 07:46:46;;;;;;;5.00;3.00;;;;;;;15.83;46.16;96866.89;110452;1242;68780;-75
2023/04/19 07:49:15;;;;;;;4.20;2.60;;;;;;;16.04;47.67;96868.55;110372;1242;69252;-75
2023/04/19 07:51:44;;;;;;;3.70;2.80;;;;;;;16.33;46.13;96866.23;110459;1240;59739;-74
2023/04/19 07:54:16;;;;;;;4.50;3.00;;;;;;;16.75;45.51;96864.43;110483;1243;59665;-74
2023/04/19 07:56:45;;;;;;;5.20;3.30;;;;;;;16.91;45.14;96862.95;110305;1242;71939;-74
2023/04/19 07:59:15;;;;;;;3.80;2.80;;;;;;;17.18;44.55;96863.23;110393;1242;68231;-74
2023/04/19 08:01:44;;;;;;;4.00;3.10;;;;;;;16.81;43.21;96862.37;110419;1242;68476;-74
2023/04/19 08:04:13;;;;;;;5.80;3.10;;;;;;;17.37;45.63;96858.27;110420;1241;59699;-75
2023/04/19 08:06:43;;;;;;;;;;;;;;;17.26;43.67;96856.67;110383;1241;59743;-74
2023/04/19 08:09:12;;;;;;;3.40;2.90;;;;;;;16.98;42.87;96852.33;110281;1242;70061;-75
2023/04/19 08:11:42;;;;;;;3.90;2.70;;;;;;;16.63;43.24;96854.84;110265;1242;69282;-75
2023/04/19 08:14:13;;;;;;;4.80;2.90;;;;;;;16.09;44.58;96853.09;110367;1242;69425;-76
2023/04/19 08:17:04;;;;;;;4.20;3.10;;;;;;;16.42;44.06;96851.77;110381;1242;59747;-74
2023/04/19 08:19:53;;;;;;;5.10;3.00;;;;;;;16.15;44.17;96848.63;110251;1242;59671;-74
2023/04/19 08:22:22;;;;;;;4.80;3.00;;;;;;;16.25;43.56;96845.26;110455;1241;70608;-74
2023/04/19 08:24:52;;;;;;;2.90;2.60;;;;;;;16.83;43.43;96842.67;110362;1242;68115;-73
2023/04/19 08:27:21;;;;;;;;;;;;;;;17.24;43.18;96844.20;110264;1243;69190;-74
2023/04/19 08:29:51;;;;;;;6.20;3.20;;;;;;;17.66;42.39;96839.60;110424;1242;59674;-74
2023/04/19 08:32:20;;;;;;;3.70;2.80;;;;;;;18.07;41.47;96838.25;110410;1242;59679;-76
2023/04/19 08:34:49;;;;;;;4.90;2.80;;;;;;;18.13;41.73;96839.65;110311;1242;71981;-75
2023/04/19 08:37:18;;;;;;;5.30;3.20;;;;;;;18.34;41.29;96841.40;110364;1242;70183;-74
2023/04/19 08:39:47;;;;;;;5.90;3.30;;;;;;;18.28;40.05;96840.84;109918;1247;442570;-74
2023/04/19 08:42:18;;;;;;;4.40;3.40;;;;;;;17.81;40.72;96837.41;110434;1242;59644;-74
2023/04/19 08:45:05;;;;;;;4.50;3.20;;;;;;;17.06;41.91;96841.89;110389;1241;59681;-75
2023/04/19 08:47:39;;;;;;;4.30;3.00;;;;;;;17.13;42.14;96840.27;110911;1242;71385;-74
2023/04/19 08:50:11;;;;;;;4.70;3.20;;;;;;;16.71;42.08;96839.40;110522;1240;68581;-73
2023/04/19 08:53:01;;;;;;;4.80;3.20;;;;;;;16.60;43.18;96837.20;110253;1242;69853;-74
2023/04/19 08:55:33;;;;;;;5.10;3.20;;;;;;;16.78;44.06;96838.30;110200;1243;59699;-73
2023/04/19 08:58:03;;;;;;;5.70;3.30;;;;;;;16.93;44.31;96835.54;110310;1242;59949;-72
2023/04/19 09:00:41;;;;;;;4.80;3.80;;;;;;;17.16;44.75;96835.92;110281;1239;71942;-72
2023/04/19 09:03:10;;;;;;;;;;;;;;;17.28;44.28;96832.86;110370;1240;69073;-72
2023/04/19 09:05:40;;;;;;;5.10;3.00;;;;;;;17.65;43.90;96825.63;110449;1241;69246;-74
2023/04/19 09:08:29;;;;;;;4.30;2.90;;;;;;;18.55;42.61;96824.14;110425;1242;59724;-73
2023/04/19 09:11:00;;;;;;;4.50;3.70;;;;;;;19.61;41.89;96822.05;110278;1241;59814;-73
2023/04/19 09:13:31;;;;;;;5.40;4.20;;;;;;;20.39;39.84;96818.98;110478;1241;70524;-74
2023/04/19 09:16:00;;;;;;;5.00;3.40;;;;;;;20.61;36.46;96816.01;110394;1242;69772;-73
2023/04/19 09:18:29;;;;;;;5.40;3.50;;;;;;;21.37;36.67;96811.59;110389;1241;69924;-74
2023/04/19 09:21:01;;;;;;;4.70;3.80;;;;;;;22.29;35.91;96812.11;110232;1242;59750;-73
2023/04/19 09:23:30;;;;;;;5.20;3.80;;;;;;;22.27;34.52;96810.99;110434;1241;59681;-72
2023/04/19 09:26:03;;;;;;;6.80;3.70;;;;;;;21.08;34.92;96812.11;110298;1240;72049;-74
2023/04/19 09:28:35;;;;;;;5.10;3.60;;;;;;;19.93;37.39;96810.05;110389;1242;68840;-73
2023/04/19 09:31:13;;;;;;;7.00;3.60;;;;;;;19.77;38.17;96808.63;110272;1244;69268;-72
2023/04/19 09:34:15;;;;;;;4.80;3.80;;;;;;;18.92;38.43;96817.62;110279;1242;59628;-73
2023/04/19 09:36:45;;;;;;;4.60;4.10;;;;;;;18.42;39.98;96816.80;110376;1242;59706;-74
2023/04/19 09:39:31;;;;;;;4.50;3.60;;;;;;;18.08;40.37;96814.83;110385;1242;71232;-73
2023/04/19 09:42:00;;;;;;;5.60;4.20;;;;;;;17.26;41.51;96811.80;110400;1242;69236;-73
2023/04/19 09:44:34;;;;;;;7.10;4.80;;;;;;;16.82;42.47;96812.88;110443;1242;69966;-73
2023/04/19 09:47:24;;;;;;;7.30;5.10;;;;;;;17.54;41.69;96807.98;111329;1242;60084;-72
2023/04/19 09:50:12;;;;;;;5.00;4.30;;;;;;;18.15;41.25;96806.27;110567;1242;59670;-72
2023/04/19 09:52:52;;;;;;;6.50;4.10;;;;;;;18.58;39.79;96807.34;110328;1241;71951;-72
2023/04/19 09:55:22;;;;;;;7.50;4.60;;;;;;;18.68;39.15;96804.30;110451;1242;69031;-73
2023/04/19 09:57:56;;;;;;;4.90;3.40;;;;;;;18.48;40.01;96803.46;110279;1241;69170;-75
2023/04/19 10:00:25;;;;;;;4.80;3.80;;;;;;;18.72;40.42;96810.07;110336;1243;59699;-74
2023/04/19 10:02:57;;;;;;;4.50;3.20;;;;;;;18.86;39.25;96798.21;110225;1242;59672;-73
2023/04/19 10:05:27;;;;;;;4.70;3.70;;;;;;;18.50;38.85;96804.58;110241;1242;71375;-74
2023/04/19 10:07:58;;;;;;;5.40;3.10;;;;;;;18.63;39.31;96804.03;110407;1242;69207;-73
2023/04/19 10:10:30;;;;;;;3.40;2.70;;;;;;;18.79;38.47;96806.09;110324;1242;69850;-72
2023/04/19 10:13:05;;;;;;;4.70;3.10;;;;;;;18.85;38.59;96804.98;110458;1244;59683;-73
2023/04/19 10:15:48;;;;;;;5.50;3.50;;;;;;;19.19;37.25;96798.69;110407;1242;59628;-73
2023/04/19 10:18:25;;;;;;;4.60;3.00;;;;;;;19.36;37.14;96796.88;110383;1242;71407;-72
2023/04/19 10:21:00;;;;;;;5.70;2.90;;;;;;;19.38;36.14;96797.70;110255;1242;69823;-72
2023/04/19 10:23:31;;;;;;;4.50;3.00;;;;;;;19.48;36.28;96795.60;110296;1242;69282;-73
2023/04/19 10:26:00;;;;;;;3.80;3.30;;;;;;;19.32;36.65;96797.16;110390;1241;59760;-74
2023/04/19 10:28:29;;;;;;;4.80;3.70;;;;;;;19.18;37.72;96793.48;110209;1244;59644;-73
2023/04/19 10:31:03;;;;;;;4.70;2.90;;;;;;;19.29;38.04;96789.97;110384;1242;71959;-73
2023/04/19 10:33:36;;;;;;;6.00;3.60;;;;;;;20.38;37.63;96787.13;110361;1242;69779;-73
2023/04/19 10:36:10;;;;;;;4.10;3.50;;;;;;;21.11;36.67;96782.02;110367;1242;69250;-74
2023/04/19 10:38:54;;;;;;;4.70;4.10;;;;;;;21.87;37.11;96785.73;110264;1240;59627;-72
2023/04/19 10:42:09;;;;;;;4.40;4.00;;;;;;;22.20;35.24;96786.89;110271;1242;59701;-73
2023/04/19 10:44:39;;;;;;;5.80;4.70;;;;;;;21.80;35.64;96782.92;110582;1240;71731;-73
2023/04/19 10:47:09;;;;;;;6.10;4.20;;;;;;;21.23;36.09;96782.71;110483;1242;69236;-73
2023/04/19 10:49:46;;;;;;;5.50;4.30;;;;;;;20.83;36.44;96783.30;110452;1242;69852;-74
2023/04/19 10:52:30;;;;;;;6.10;4.50;;;;;;;20.27;36.66;96784.91;110228;1241;59667;-73
2023/04/19 10:55:03;;;;;;;4.50;3.80;;;;;;;19.48;37.87;96784.29;110407;1242;59630;-73
2023/04/19 10:58:02;;;;;;;9.80;4.10;;;;;;;19.18;38.88;96786.08;110439;1242;71243;-71
2023/04/19 11:00:32;;;;;;;;;;;;;;;18.80;39.98;96792.04;110419;1242;69206;-71
2023/04/19 11:03:38;;;;;;;7.30;4.50;;;;;;;18.47;40.45;96786.95;110281;1247;69849;-72
2023/04/19 11:06:21;;;;;;;5.90;3.80;;;;;;;17.85;41.42;96789.19;110208;1242;59676;-72
2023/04/19 11:08:51;;;;;;;5.40;4.20;;;;;;;17.71;41.76;96792.94;110403;1245;59678;-72
2023/04/19 11:11:25;;;;;;;5.30;3.40;;;;;;;17.42;42.61;96791.14;110245;1242;72402;-73
2023/04/19 11:14:01;;;;;;;4.70;3.30;;;;;;;17.50;42.06;96787.66;110368;1242;69326;-72
2023/04/19 11:16:30;;;;;;;4.50;3.00;;;;;;;17.42;42.50;96787.98;110413;1242;69927;-72
2023/04/19 11:19:17;;;;;;;4.40;3.60;;;;;;;17.39;41.99;96789.27;110357;1242;59681;-73
2023/04/19 11:21:48;;;;;;;6.00;3.70;;;;;;;17.26;42.64;96792.77;110231;1242;59621;-72
2023/04/19 11:24:20;;;;;;;3.60;2.50;;;;;;;17.28;42.38;96791.06;110288;1244;71390;-72
2023/04/19 11:26:49;;;;;;;4.50;2.80;;;;;;;17.43;41.99;96788.83;110424;1242;69101;-72
2023/04/19 11:29:21;;;;;;;3.80;2.80;;;;;;;17.53;41.44;96789.45;110227;1240;69532;-72
2023/04/19 11:31:50;;;;;;;;;;;;;;;17.68;42.47;96787.36;110256;1242;59676;-72
2023/04/19 11:34:22;;;;;;;6.20;3.60;;;;;;;17.72;41.95;96786.46;110402;1241;60137;-73
2023/04/19 11:36:52;;;;;;;4.50;3.20;;;;;;;17.85;42.85;96786.42;110188;1245;70296;-72
2023/04/19 11:39:21;;;;;;;4.20;3.00;;;;;;;18.07;41.51;96785.33;110228;1242;69725;-72
2023/04/19 11:41:50;;;;;;;3.40;2.50;;;;;;;18.08;41.46;96785.23;110368;1242;69223;-73
2023/04/19 11:44:19;;;;;;;4.70;3.30;;;;;;;18.34;41.35;96781.03;110230;1242;59666;-72
2023/04/19 11:46:59;;;;;;;3.50;2.60;;;;;;;18.63;40.04;96780.73;110297;1245;59676;-72
2023/04/19 11:49:30;;;;;;;3.40;2.50;;;;;;;18.95;39.62;96778.38;110507;1242;71428;-72
2023/04/19 11:52:01;;;;;;;3.80;2.40;;;;;;;19.09;38.44;96776.73;111290;1241;68648;-73
2023/04/19 11:54:33;;;;;;;3.70;2.30;;;;;;;19.13;37.74;96765.98;110466;1242;69158;-72